<?xml version="1.0" encoding="UTF-8" standalone="no" ?>
<gpx xmlns="http://www.topografix.com/GPX/1/1" xmlns:xsi="http://www.w3.org/2001/XMLSchema-instance" xsi:schemaLocation="http://www.topografix.com/GPX/1/1 http://www.topografix.com/GPX/1/1/gpx.xsd" version="1.1" creator="VisuGPX - https://www.visugpx.com">
  <metadata>
    <name>Amboise-St Benoit v3</name>
    <desc><![CDATA[Total: 36.9km]]></desc>
  </metadata>
  <trk>
    <name><![CDATA[Langeais - St Benoit]]></name>
    <extensions>
      <line xmlns="http://www.topografix.com/GPX/gpx_style/0/2">
        <color>FF0000</color>
        <width>4</width>
      </line>
    </extensions>
    <trkseg>
      <trkpt lat="47.32099" lon="0.40306">
        <ele>40.179846380707</ele>
        <time>2021-08-17T06:50:28.000Z</time>
      </trkpt>
      <trkpt lat="47.32099" lon="0.40312">
        <ele>40.127611996338</ele>
        <time>2021-08-17T06:50:28.001Z</time>
      </trkpt>
      <trkpt lat="47.32095" lon="0.40317">
        <ele>39.960297683169</ele>
        <time>2021-08-17T06:50:28.004Z</time>
      </trkpt>
      <trkpt lat="47.32086" lon="0.40328">
        <ele>39.667463507822</ele>
        <time>2021-08-17T06:50:28.011Z</time>
      </trkpt>
      <trkpt lat="47.31778" lon="0.40582">
        <ele>40.217029316079</ele>
        <time>2021-08-17T06:50:28.136Z</time>
      </trkpt>
      <trkpt lat="47.31731" lon="0.40622">
        <ele>40.886260881629</ele>
        <time>2021-08-17T06:50:28.279Z</time>
      </trkpt>
      <trkpt lat="47.31519" lon="0.40799">
        <ele>39.663783691283</ele>
        <time>2021-08-17T06:50:28.503Z</time>
      </trkpt>
      <trkpt lat="47.31506" lon="0.40811">
        <ele>39.513637874835</ele>
        <time>2021-08-17T06:50:28.732Z</time>
      </trkpt>
      <trkpt lat="47.31497" lon="0.40824">
        <ele>39.41113595694</ele>
        <time>2021-08-17T06:50:28.966Z</time>
      </trkpt>
      <trkpt lat="47.31467" lon="0.4073">
        <ele>38.813006844106</ele>
        <time>2021-08-17T06:50:29.223Z</time>
      </trkpt>
      <trkpt lat="47.31415" lon="0.40597">
        <ele>39.045432960899</ele>
        <time>2021-08-17T06:50:29.515Z</time>
      </trkpt>
      <trkpt lat="47.31389" lon="0.4052">
        <ele>38.966352460882</ele>
        <time>2021-08-17T06:50:29.827Z</time>
      </trkpt>
      <trkpt lat="47.31336" lon="0.40383">
        <ele>39.088037519862</ele>
        <time>2021-08-17T06:50:30.174Z</time>
      </trkpt>
      <trkpt lat="47.31301" lon="0.40281">
        <ele>39.486923780744</ele>
        <time>2021-08-17T06:50:30.547Z</time>
      </trkpt>
      <trkpt lat="47.31275" lon="0.40192">
        <ele>39.418864692168</ele>
        <time>2021-08-17T06:50:30.942Z</time>
      </trkpt>
      <trkpt lat="47.31253" lon="0.40109">
        <ele>39.290653010534</ele>
        <time>2021-08-17T06:50:31.357Z</time>
      </trkpt>
      <trkpt lat="47.31244" lon="0.40073">
        <ele>39.316012722345</ele>
        <time>2021-08-17T06:50:31.781Z</time>
      </trkpt>
      <trkpt lat="47.31231" lon="0.39997">
        <ele>39.474585958676</ele>
        <time>2021-08-17T06:50:32.223Z</time>
      </trkpt>
      <trkpt lat="47.31223" lon="0.39962">
        <ele>39.599299546738</ele>
        <time>2021-08-17T06:50:32.673Z</time>
      </trkpt>
      <trkpt lat="47.31191" lon="0.39869">
        <ele>39.880835361491</ele>
        <time>2021-08-17T06:50:33.147Z</time>
      </trkpt>
      <trkpt lat="47.31121" lon="0.39715">
        <ele>40.192654417859</ele>
        <time>2021-08-17T06:50:33.663Z</time>
      </trkpt>
      <trkpt lat="47.31084" lon="0.39632">
        <ele>40.449308270533</ele>
        <time>2021-08-17T06:50:34.201Z</time>
      </trkpt>
      <trkpt lat="47.31035" lon="0.39494">
        <ele>40.386096439916</ele>
        <time>2021-08-17T06:50:34.775Z</time>
      </trkpt>
      <trkpt lat="47.31007" lon="0.39395">
        <ele>40.784167130908</ele>
        <time>2021-08-17T06:50:35.373Z</time>
      </trkpt>
      <trkpt lat="47.3099" lon="0.3929">
        <ele>40.710743930391</ele>
        <time>2021-08-17T06:50:35.995Z</time>
      </trkpt>
      <trkpt lat="47.30982" lon="0.39261">
        <ele>40.729709932655</ele>
        <time>2021-08-17T06:50:36.625Z</time>
      </trkpt>
      <trkpt lat="47.30922" lon="0.39094">
        <ele>40.533418978276</ele>
        <time>2021-08-17T06:50:37.297Z</time>
      </trkpt>
      <trkpt lat="47.30895" lon="0.39035">
        <ele>40.676565864278</ele>
        <time>2021-08-17T06:50:37.986Z</time>
      </trkpt>
      <trkpt lat="47.30859" lon="0.3897">
        <ele>40.73151712343</ele>
        <time>2021-08-17T06:50:38.694Z</time>
      </trkpt>
      <trkpt lat="47.30825" lon="0.38909">
        <ele>40.705970936298</ele>
        <time>2021-08-17T06:50:39.420Z</time>
      </trkpt>
      <trkpt lat="47.30797" lon="0.38849">
        <ele>40.56841170691</ele>
        <time>2021-08-17T06:50:40.162Z</time>
      </trkpt>
      <trkpt lat="47.30784" lon="0.38815">
        <ele>40.455916407336</ele>
        <time>2021-08-17T06:50:40.913Z</time>
      </trkpt>
      <trkpt lat="47.30771" lon="0.38771">
        <ele>40.426161074769</ele>
        <time>2021-08-17T06:50:41.675Z</time>
      </trkpt>
      <trkpt lat="47.30703" lon="0.3849">
        <ele>40.333596213211</ele>
        <time>2021-08-17T06:50:42.504Z</time>
      </trkpt>
      <trkpt lat="47.30694" lon="0.38466">
        <ele>40.282396291636</ele>
        <time>2021-08-17T06:50:43.340Z</time>
      </trkpt>
      <trkpt lat="47.30659" lon="0.38411">
        <ele>40.204579097906</ele>
        <time>2021-08-17T06:50:44.193Z</time>
      </trkpt>
      <trkpt lat="47.30643" lon="0.38382">
        <ele>40.113327006882</ele>
        <time>2021-08-17T06:50:45.054Z</time>
      </trkpt>
      <trkpt lat="47.30597" lon="0.38276">
        <ele>39.89335785075</ele>
        <time>2021-08-17T06:50:45.944Z</time>
      </trkpt>
      <trkpt lat="47.30513" lon="0.381">
        <ele>39.630674624799</ele>
        <time>2021-08-17T06:50:46.882Z</time>
      </trkpt>
      <trkpt lat="47.30491" lon="0.38043">
        <ele>39.294588670258</ele>
        <time>2021-08-17T06:50:47.835Z</time>
      </trkpt>
      <trkpt lat="47.30474" lon="0.38006">
        <ele>39.098204366079</ele>
        <time>2021-08-17T06:50:48.799Z</time>
      </trkpt>
      <trkpt lat="47.30461" lon="0.37981">
        <ele>38.928499856488</ele>
        <time>2021-08-17T06:50:49.770Z</time>
      </trkpt>
      <trkpt lat="47.30447" lon="0.3796">
        <ele>38.793513253842</ele>
        <time>2021-08-17T06:50:50.747Z</time>
      </trkpt>
      <trkpt lat="47.30424" lon="0.3793">
        <ele>38.695325825765</ele>
        <time>2021-08-17T06:50:51.734Z</time>
      </trkpt>
      <trkpt lat="47.30409" lon="0.37893">
        <ele>38.51370161794</ele>
        <time>2021-08-17T06:50:52.731Z</time>
      </trkpt>
      <trkpt lat="47.30395" lon="0.37847">
        <ele>38.24853717415</ele>
        <time>2021-08-17T06:50:53.740Z</time>
      </trkpt>
      <trkpt lat="47.30361" lon="0.37709">
        <ele>38.028760479751</ele>
        <time>2021-08-17T06:50:54.782Z</time>
      </trkpt>
      <trkpt lat="47.30336" lon="0.37608">
        <ele>38.044137500233</ele>
        <time>2021-08-17T06:50:55.848Z</time>
      </trkpt>
      <trkpt lat="47.30298" lon="0.37458">
        <ele>37.929746613695</ele>
        <time>2021-08-17T06:50:56.951Z</time>
      </trkpt>
      <trkpt lat="47.30277" lon="0.37364">
        <ele>37.630359283664</ele>
        <time>2021-08-17T06:50:58.076Z</time>
      </trkpt>
      <trkpt lat="47.30268" lon="0.37334">
        <ele>37.55200764297</ele>
        <time>2021-08-17T06:50:59.209Z</time>
      </trkpt>
      <trkpt lat="47.30256" lon="0.37305">
        <ele>37.45392648721</ele>
        <time>2021-08-17T06:51:00.349Z</time>
      </trkpt>
      <trkpt lat="47.30239" lon="0.37271">
        <ele>37.387356034125</ele>
        <time>2021-08-17T06:51:01.499Z</time>
      </trkpt>
      <trkpt lat="47.30198" lon="0.37208">
        <ele>37.360865217189</ele>
        <time>2021-08-17T06:51:02.669Z</time>
      </trkpt>
      <trkpt lat="47.30124" lon="0.37097">
        <ele>37.38308880799</ele>
        <time>2021-08-17T06:51:03.874Z</time>
      </trkpt>
      <trkpt lat="47.30124" lon="0.37097">
        <ele>37.358714031516</ele>
        <time>2021-08-17T06:51:05.079Z</time>
      </trkpt>
      <trkpt lat="47.30075" lon="0.37015">
        <ele>37.270276429667</ele>
        <time>2021-08-17T06:51:06.309Z</time>
      </trkpt>
      <trkpt lat="47.29998" lon="0.36864">
        <ele>37.317005974375</ele>
        <time>2021-08-17T06:51:07.581Z</time>
      </trkpt>
      <trkpt lat="47.29981" lon="0.3684">
        <ele>37.257841296237</ele>
        <time>2021-08-17T06:51:08.861Z</time>
      </trkpt>
      <trkpt lat="47.29903" lon="0.36761">
        <ele>37.262690043402</ele>
        <time>2021-08-17T06:51:10.173Z</time>
      </trkpt>
      <trkpt lat="47.29886" lon="0.36737">
        <ele>37.283817310457</ele>
        <time>2021-08-17T06:51:11.493Z</time>
      </trkpt>
      <trkpt lat="47.29874" lon="0.3671">
        <ele>37.264734608846</ele>
        <time>2021-08-17T06:51:12.820Z</time>
      </trkpt>
      <trkpt lat="47.29863" lon="0.36679">
        <ele>37.25955531513</ele>
        <time>2021-08-17T06:51:14.155Z</time>
      </trkpt>
      <trkpt lat="47.29855" lon="0.36648">
        <ele>37.190050176709</ele>
        <time>2021-08-17T06:51:15.498Z</time>
      </trkpt>
      <trkpt lat="47.29849" lon="0.36611">
        <ele>37.165332510263</ele>
        <time>2021-08-17T06:51:16.849Z</time>
      </trkpt>
      <trkpt lat="47.29841" lon="0.36507">
        <ele>37.273654072675</ele>
        <time>2021-08-17T06:51:18.224Z</time>
      </trkpt>
      <trkpt lat="47.29841" lon="0.36507">
        <ele>37.262854281045</ele>
        <time>2021-08-17T06:51:19.599Z</time>
      </trkpt>
      <trkpt lat="47.29835" lon="0.36448">
        <ele>37.296768904085</ele>
        <time>2021-08-17T06:51:20.987Z</time>
      </trkpt>
      <trkpt lat="47.2983" lon="0.36409">
        <ele>37.230893914673</ele>
        <time>2021-08-17T06:51:22.384Z</time>
      </trkpt>
      <trkpt lat="47.29824" lon="0.3637">
        <ele>37.113074524714</ele>
        <time>2021-08-17T06:51:23.791Z</time>
      </trkpt>
      <trkpt lat="47.2981" lon="0.36309">
        <ele>37.056691287745</ele>
        <time>2021-08-17T06:51:25.212Z</time>
      </trkpt>
      <trkpt lat="47.29791" lon="0.36248">
        <ele>36.992055386931</ele>
        <time>2021-08-17T06:51:26.648Z</time>
      </trkpt>
      <trkpt lat="47.29751" lon="0.36126">
        <ele>36.902207199326</ele>
        <time>2021-08-17T06:51:28.115Z</time>
      </trkpt>
      <trkpt lat="47.29732" lon="0.36064">
        <ele>36.832531095995</ele>
        <time>2021-08-17T06:51:29.597Z</time>
      </trkpt>
      <trkpt lat="47.29714" lon="0.3599">
        <ele>36.761796057234</ele>
        <time>2021-08-17T06:51:31.097Z</time>
      </trkpt>
      <trkpt lat="47.29678" lon="0.36002">
        <ele>36.64445826506</ele>
        <time>2021-08-17T06:51:32.610Z</time>
      </trkpt>
      <trkpt lat="47.29537" lon="0.36054">
        <ele>36.509473171931</ele>
        <time>2021-08-17T06:51:34.171Z</time>
      </trkpt>
      <trkpt lat="47.29448" lon="0.36099">
        <ele>36.452079536661</ele>
        <time>2021-08-17T06:51:35.764Z</time>
      </trkpt>
      <trkpt lat="47.29435" lon="0.36104">
        <ele>36.360781402545</ele>
        <time>2021-08-17T06:51:37.361Z</time>
      </trkpt>
      <trkpt lat="47.29363" lon="0.3611">
        <ele>36.267589521108</ele>
        <time>2021-08-17T06:51:38.982Z</time>
      </trkpt>
      <trkpt lat="47.29343" lon="0.36114">
        <ele>36.206830502216</ele>
        <time>2021-08-17T06:51:40.610Z</time>
      </trkpt>
      <trkpt lat="47.29334" lon="0.36119">
        <ele>36.143030090715</ele>
        <time>2021-08-17T06:51:42.241Z</time>
      </trkpt>
      <trkpt lat="47.29328" lon="0.36124">
        <ele>36.083799938612</ele>
        <time>2021-08-17T06:51:43.874Z</time>
      </trkpt>
      <trkpt lat="47.29294" lon="0.36163">
        <ele>36.11037966153</ele>
        <time>2021-08-17T06:51:45.522Z</time>
      </trkpt>
      <trkpt lat="47.2926" lon="0.36192">
        <ele>35.973651829749</ele>
        <time>2021-08-17T06:51:47.183Z</time>
      </trkpt>
      <trkpt lat="47.29181" lon="0.36244">
        <ele>35.845850798931</ele>
        <time>2021-08-17T06:51:48.873Z</time>
      </trkpt>
      <trkpt lat="47.29139" lon="0.36319">
        <ele>35.873645985166</ele>
        <time>2021-08-17T06:51:50.585Z</time>
      </trkpt>
      <trkpt lat="47.29124" lon="0.36342">
        <ele>35.890849325018</ele>
        <time>2021-08-17T06:51:52.304Z</time>
      </trkpt>
      <trkpt lat="47.29109" lon="0.36357">
        <ele>35.863422435088</ele>
        <time>2021-08-17T06:51:54.029Z</time>
      </trkpt>
      <trkpt lat="47.28977" lon="0.36426">
        <ele>35.73462095866</ele>
        <time>2021-08-17T06:51:55.801Z</time>
      </trkpt>
      <trkpt lat="47.2882" lon="0.36513">
        <ele>35.628816302439</ele>
        <time>2021-08-17T06:51:57.629Z</time>
      </trkpt>
      <trkpt lat="47.28818" lon="0.36485">
        <ele>35.595474555741</ele>
        <time>2021-08-17T06:51:59.463Z</time>
      </trkpt>
      <trkpt lat="47.28792" lon="0.36418">
        <ele>35.719315861739</ele>
        <time>2021-08-17T06:52:01.315Z</time>
      </trkpt>
      <trkpt lat="47.28786" lon="0.36387">
        <ele>35.668862617848</ele>
        <time>2021-08-17T06:52:03.174Z</time>
      </trkpt>
      <trkpt lat="47.28769" lon="0.36292">
        <ele>35.410653341108</ele>
        <time>2021-08-17T06:52:05.055Z</time>
      </trkpt>
      <trkpt lat="47.2876" lon="0.36253">
        <ele>35.428089860163</ele>
        <time>2021-08-17T06:52:06.946Z</time>
      </trkpt>
      <trkpt lat="47.28748" lon="0.3622">
        <ele>35.472738584326</ele>
        <time>2021-08-17T06:52:08.845Z</time>
      </trkpt>
      <trkpt lat="47.28737" lon="0.36199">
        <ele>35.534411515586</ele>
        <time>2021-08-17T06:52:10.750Z</time>
      </trkpt>
      <trkpt lat="47.28679" lon="0.36129">
        <ele>35.700588119633</ele>
        <time>2021-08-17T06:52:12.680Z</time>
      </trkpt>
      <trkpt lat="47.28624" lon="0.36064">
        <ele>35.607179333978</ele>
        <time>2021-08-17T06:52:14.634Z</time>
      </trkpt>
      <trkpt lat="47.2859" lon="0.36027">
        <ele>35.743415711557</ele>
        <time>2021-08-17T06:52:16.602Z</time>
      </trkpt>
      <trkpt lat="47.28585" lon="0.36019">
        <ele>35.82914593954</ele>
        <time>2021-08-17T06:52:18.572Z</time>
      </trkpt>
      <trkpt lat="47.28581" lon="0.36009">
        <ele>35.912415903819</ele>
        <time>2021-08-17T06:52:20.545Z</time>
      </trkpt>
      <trkpt lat="47.28579" lon="0.35988">
        <ele>36.00186248773</ele>
        <time>2021-08-17T06:52:22.523Z</time>
      </trkpt>
      <trkpt lat="47.2858" lon="0.35953">
        <ele>36.095776115934</ele>
        <time>2021-08-17T06:52:24.509Z</time>
      </trkpt>
      <trkpt lat="47.28576" lon="0.35897">
        <ele>36.149928092658</ele>
        <time>2021-08-17T06:52:26.508Z</time>
      </trkpt>
      <trkpt lat="47.28554" lon="0.35812">
        <ele>36.344704078815</ele>
        <time>2021-08-17T06:52:28.527Z</time>
      </trkpt>
      <trkpt lat="47.28533" lon="0.35747">
        <ele>36.515655173923</ele>
        <time>2021-08-17T06:52:30.562Z</time>
      </trkpt>
      <trkpt lat="47.28497" lon="0.35665">
        <ele>36.556716718753</ele>
        <time>2021-08-17T06:52:32.620Z</time>
      </trkpt>
      <trkpt lat="47.28452" lon="0.355">
        <ele>36.560954952752</ele>
        <time>2021-08-17T06:52:34.718Z</time>
      </trkpt>
      <trkpt lat="47.28426" lon="0.35422">
        <ele>36.713380083317</ele>
        <time>2021-08-17T06:52:36.836Z</time>
      </trkpt>
      <trkpt lat="47.28402" lon="0.35314">
        <ele>36.66759077952</ele>
        <time>2021-08-17T06:52:38.979Z</time>
      </trkpt>
      <trkpt lat="47.28379" lon="0.35238">
        <ele>36.68754460757</ele>
        <time>2021-08-17T06:52:41.141Z</time>
      </trkpt>
      <trkpt lat="47.28376" lon="0.35211">
        <ele>36.799507162664</ele>
        <time>2021-08-17T06:52:43.309Z</time>
      </trkpt>
      <trkpt lat="47.2837" lon="0.35186">
        <ele>36.909104588563</ele>
        <time>2021-08-17T06:52:45.483Z</time>
      </trkpt>
      <trkpt lat="47.28364" lon="0.35172">
        <ele>37.005845405309</ele>
        <time>2021-08-17T06:52:47.661Z</time>
      </trkpt>
      <trkpt lat="47.28357" lon="0.35167">
        <ele>37.028077440664</ele>
        <time>2021-08-17T06:52:49.842Z</time>
      </trkpt>
      <trkpt lat="47.28353" lon="0.35148">
        <ele>37.041684961856</ele>
        <time>2021-08-17T06:52:52.027Z</time>
      </trkpt>
      <trkpt lat="47.28349" lon="0.3512">
        <ele>37.040564641381</ele>
        <time>2021-08-17T06:52:54.219Z</time>
      </trkpt>
      <trkpt lat="47.28362" lon="0.3506">
        <ele>36.887967858321</ele>
        <time>2021-08-17T06:52:56.425Z</time>
      </trkpt>
      <trkpt lat="47.28362" lon="0.3506">
        <ele>36.825995535826</ele>
        <time>2021-08-17T06:52:58.631Z</time>
      </trkpt>
      <trkpt lat="47.28364" lon="0.35043">
        <ele>36.671038551399</ele>
        <time>2021-08-17T06:53:00.841Z</time>
      </trkpt>
      <trkpt lat="47.28364" lon="0.35029">
        <ele>36.568204548725</ele>
        <time>2021-08-17T06:53:03.054Z</time>
      </trkpt>
      <trkpt lat="47.28362" lon="0.34998">
        <ele>36.501412052328</ele>
        <time>2021-08-17T06:53:05.274Z</time>
      </trkpt>
      <trkpt lat="47.28358" lon="0.34969">
        <ele>36.451868486047</ele>
        <time>2021-08-17T06:53:07.501Z</time>
      </trkpt>
      <trkpt lat="47.28348" lon="0.34931">
        <ele>36.382236216071</ele>
        <time>2021-08-17T06:53:09.737Z</time>
      </trkpt>
      <trkpt lat="47.28341" lon="0.34918">
        <ele>36.30927013967</ele>
        <time>2021-08-17T06:53:11.977Z</time>
      </trkpt>
      <trkpt lat="47.28332" lon="0.34908">
        <ele>36.256010486265</ele>
        <time>2021-08-17T06:53:14.221Z</time>
      </trkpt>
      <trkpt lat="47.28305" lon="0.34891">
        <ele>36.24080212016</ele>
        <time>2021-08-17T06:53:16.474Z</time>
      </trkpt>
      <trkpt lat="47.2825" lon="0.34846">
        <ele>36.233334997055</ele>
        <time>2021-08-17T06:53:18.749Z</time>
      </trkpt>
      <trkpt lat="47.28242" lon="0.34843">
        <ele>36.209066856969</ele>
        <time>2021-08-17T06:53:21.026Z</time>
      </trkpt>
      <trkpt lat="47.28237" lon="0.34842">
        <ele>36.184911183893</ele>
        <time>2021-08-17T06:53:23.305Z</time>
      </trkpt>
      <trkpt lat="47.2823" lon="0.34843">
        <ele>36.168640163167</ele>
        <time>2021-08-17T06:53:25.586Z</time>
      </trkpt>
      <trkpt lat="47.28213" lon="0.34847">
        <ele>36.128579704653</ele>
        <time>2021-08-17T06:53:27.873Z</time>
      </trkpt>
      <trkpt lat="47.28183" lon="0.34844">
        <ele>36.026677466401</ele>
        <time>2021-08-17T06:53:30.170Z</time>
      </trkpt>
      <trkpt lat="47.28154" lon="0.34859">
        <ele>35.882240871735</ele>
        <time>2021-08-17T06:53:32.477Z</time>
      </trkpt>
      <trkpt lat="47.28148" lon="0.34856">
        <ele>35.849855429129</ele>
        <time>2021-08-17T06:53:34.787Z</time>
      </trkpt>
      <trkpt lat="47.28141" lon="0.34848">
        <ele>35.842952787256</ele>
        <time>2021-08-17T06:53:37.099Z</time>
      </trkpt>
      <trkpt lat="47.28133" lon="0.3482">
        <ele>35.876360538829</ele>
        <time>2021-08-17T06:53:39.418Z</time>
      </trkpt>
      <trkpt lat="47.28133" lon="0.3482">
        <ele>35.855873733152</ele>
        <time>2021-08-17T06:53:41.737Z</time>
      </trkpt>
      <trkpt lat="47.28115" lon="0.34763">
        <ele>35.80424555428</ele>
        <time>2021-08-17T06:53:44.071Z</time>
      </trkpt>
      <trkpt lat="47.28081" lon="0.34658">
        <ele>35.79671092291</ele>
        <time>2021-08-17T06:53:46.431Z</time>
      </trkpt>
      <trkpt lat="47.28063" lon="0.34625">
        <ele>35.843992964915</ele>
        <time>2021-08-17T06:53:48.801Z</time>
      </trkpt>
      <trkpt lat="47.28045" lon="0.34602">
        <ele>35.847457794872</ele>
        <time>2021-08-17T06:53:51.179Z</time>
      </trkpt>
      <trkpt lat="47.28021" lon="0.3458">
        <ele>35.760339476594</ele>
        <time>2021-08-17T06:53:53.566Z</time>
      </trkpt>
      <trkpt lat="47.27992" lon="0.34566">
        <ele>35.730885390632</ele>
        <time>2021-08-17T06:53:55.963Z</time>
      </trkpt>
      <trkpt lat="47.2789" lon="0.34549">
        <ele>35.718851607803</ele>
        <time>2021-08-17T06:53:58.394Z</time>
      </trkpt>
      <trkpt lat="47.27793" lon="0.34506">
        <ele>35.677348396226</ele>
        <time>2021-08-17T06:54:00.859Z</time>
      </trkpt>
      <trkpt lat="47.27773" lon="0.34494">
        <ele>35.649354965773</ele>
        <time>2021-08-17T06:54:03.331Z</time>
      </trkpt>
      <trkpt lat="47.27768" lon="0.34483">
        <ele>35.607158145969</ele>
        <time>2021-08-17T06:54:05.807Z</time>
      </trkpt>
      <trkpt lat="47.27755" lon="0.34464">
        <ele>35.580878817251</ele>
        <time>2021-08-17T06:54:08.289Z</time>
      </trkpt>
      <trkpt lat="47.27743" lon="0.34432">
        <ele>35.543331716705</ele>
        <time>2021-08-17T06:54:10.779Z</time>
      </trkpt>
      <trkpt lat="47.27726" lon="0.34401">
        <ele>35.557577143435</ele>
        <time>2021-08-17T06:54:13.278Z</time>
      </trkpt>
      <trkpt lat="47.27699" lon="0.34363">
        <ele>35.648371106806</ele>
        <time>2021-08-17T06:54:15.789Z</time>
      </trkpt>
      <trkpt lat="47.27685" lon="0.3433">
        <ele>35.709774624973</ele>
        <time>2021-08-17T06:54:18.309Z</time>
      </trkpt>
      <trkpt lat="47.2767" lon="0.34287">
        <ele>35.72328646682</ele>
        <time>2021-08-17T06:54:20.840Z</time>
      </trkpt>
      <trkpt lat="47.27638" lon="0.34224">
        <ele>35.752625201247</ele>
        <time>2021-08-17T06:54:23.389Z</time>
      </trkpt>
      <trkpt lat="47.27623" lon="0.34207">
        <ele>35.831319224251</ele>
        <time>2021-08-17T06:54:25.944Z</time>
      </trkpt>
      <trkpt lat="47.27618" lon="0.34201">
        <ele>35.923794426625</ele>
        <time>2021-08-17T06:54:28.502Z</time>
      </trkpt>
      <trkpt lat="47.27605" lon="0.34177">
        <ele>36.024704276255</ele>
        <time>2021-08-17T06:54:31.067Z</time>
      </trkpt>
      <trkpt lat="47.27599" lon="0.34159">
        <ele>36.129623993651</ele>
        <time>2021-08-17T06:54:33.636Z</time>
      </trkpt>
      <trkpt lat="47.2757" lon="0.34067">
        <ele>36.414240812927</ele>
        <time>2021-08-17T06:54:36.228Z</time>
      </trkpt>
      <trkpt lat="47.27549" lon="0.34004">
        <ele>36.509495387074</ele>
        <time>2021-08-17T06:54:38.836Z</time>
      </trkpt>
      <trkpt lat="47.27537" lon="0.3398">
        <ele>36.588609400634</ele>
        <time>2021-08-17T06:54:41.451Z</time>
      </trkpt>
      <trkpt lat="47.27528" lon="0.3398">
        <ele>36.661542008277</ele>
        <time>2021-08-17T06:54:44.069Z</time>
      </trkpt>
      <trkpt lat="47.27509" lon="0.33987">
        <ele>36.675189906687</ele>
        <time>2021-08-17T06:54:46.693Z</time>
      </trkpt>
      <trkpt lat="47.275" lon="0.33986">
        <ele>36.613393014286</ele>
        <time>2021-08-17T06:54:49.320Z</time>
      </trkpt>
      <trkpt lat="47.27482" lon="0.33976">
        <ele>36.564881278635</ele>
        <time>2021-08-17T06:54:51.954Z</time>
      </trkpt>
      <trkpt lat="47.2746" lon="0.3395">
        <ele>36.51991864762</ele>
        <time>2021-08-17T06:54:54.597Z</time>
      </trkpt>
      <trkpt lat="47.2742" lon="0.33889">
        <ele>36.385680893124</ele>
        <time>2021-08-17T06:54:57.259Z</time>
      </trkpt>
      <trkpt lat="47.27388" lon="0.33829">
        <ele>36.263126307968</ele>
        <time>2021-08-17T06:54:59.939Z</time>
      </trkpt>
      <trkpt lat="47.2737" lon="0.33791">
        <ele>36.144499724263</ele>
        <time>2021-08-17T06:55:02.629Z</time>
      </trkpt>
      <trkpt lat="47.27346" lon="0.33735">
        <ele>35.958681410612</ele>
        <time>2021-08-17T06:55:05.334Z</time>
      </trkpt>
      <trkpt lat="47.27345" lon="0.33707">
        <ele>35.827638713299</ele>
        <time>2021-08-17T06:55:08.045Z</time>
      </trkpt>
      <trkpt lat="47.27342" lon="0.33689">
        <ele>35.689855740493</ele>
        <time>2021-08-17T06:55:10.761Z</time>
      </trkpt>
      <trkpt lat="47.27336" lon="0.33743">
        <ele>35.746510285967</ele>
        <time>2021-08-17T06:55:13.489Z</time>
      </trkpt>
      <trkpt lat="47.27334" lon="0.33755">
        <ele>35.713902225083</ele>
        <time>2021-08-17T06:55:16.220Z</time>
      </trkpt>
      <trkpt lat="47.27316" lon="0.33815">
        <ele>35.586822136989</ele>
        <time>2021-08-17T06:55:18.966Z</time>
      </trkpt>
      <trkpt lat="47.27296" lon="0.33866">
        <ele>35.545847855875</ele>
        <time>2021-08-17T06:55:21.725Z</time>
      </trkpt>
      <trkpt lat="47.27288" lon="0.33875">
        <ele>35.534933006871</ele>
        <time>2021-08-17T06:55:24.488Z</time>
      </trkpt>
      <trkpt lat="47.27298" lon="0.33892">
        <ele>35.505033707368</ele>
        <time>2021-08-17T06:55:27.256Z</time>
      </trkpt>
      <trkpt lat="47.27302" lon="0.33898">
        <ele>35.49751995388</ele>
        <time>2021-08-17T06:55:30.026Z</time>
      </trkpt>
      <trkpt lat="47.27378" lon="0.3395">
        <ele>35.53573183459</ele>
        <time>2021-08-17T06:55:32.824Z</time>
      </trkpt>
      <trkpt lat="47.2739" lon="0.33965">
        <ele>35.483966225364</ele>
        <time>2021-08-17T06:55:35.627Z</time>
      </trkpt>
      <trkpt lat="47.27397" lon="0.33978">
        <ele>35.44586776078</ele>
        <time>2021-08-17T06:55:38.433Z</time>
      </trkpt>
      <trkpt lat="47.2744" lon="0.34112">
        <ele>35.468331099255</ele>
        <time>2021-08-17T06:55:41.273Z</time>
      </trkpt>
      <trkpt lat="47.27454" lon="0.34148">
        <ele>35.481129358763</ele>
        <time>2021-08-17T06:55:44.122Z</time>
      </trkpt>
      <trkpt lat="47.27463" lon="0.34167">
        <ele>35.474025134073</ele>
        <time>2021-08-17T06:55:46.977Z</time>
      </trkpt>
      <trkpt lat="47.27533" lon="0.34283">
        <ele>35.406629352975</ele>
        <time>2021-08-17T06:55:49.867Z</time>
      </trkpt>
      <trkpt lat="47.27544" lon="0.34298">
        <ele>35.321425377186</ele>
        <time>2021-08-17T06:55:52.762Z</time>
      </trkpt>
      <trkpt lat="47.27581" lon="0.34341">
        <ele>35.208253766161</ele>
        <time>2021-08-17T06:55:55.673Z</time>
      </trkpt>
      <trkpt lat="47.27583" lon="0.34347">
        <ele>35.183268666889</ele>
        <time>2021-08-17T06:55:58.585Z</time>
      </trkpt>
      <trkpt lat="47.27583" lon="0.34355">
        <ele>35.180201942159</ele>
        <time>2021-08-17T06:56:01.499Z</time>
      </trkpt>
      <trkpt lat="47.2758" lon="0.34362">
        <ele>35.187013660723</ele>
        <time>2021-08-17T06:56:04.415Z</time>
      </trkpt>
      <trkpt lat="47.27525" lon="0.34441">
        <ele>34.98799608237</ele>
        <time>2021-08-17T06:56:07.357Z</time>
      </trkpt>
      <trkpt lat="47.27451" lon="0.34562">
        <ele>35.092466437649</ele>
        <time>2021-08-17T06:56:10.336Z</time>
      </trkpt>
      <trkpt lat="47.27433" lon="0.34586">
        <ele>35.186682794454</ele>
        <time>2021-08-17T06:56:13.323Z</time>
      </trkpt>
      <trkpt lat="47.27293" lon="0.34683">
        <ele>35.304391870275</ele>
        <time>2021-08-17T06:56:16.362Z</time>
      </trkpt>
      <trkpt lat="47.27244" lon="0.34712">
        <ele>35.448667741423</ele>
        <time>2021-08-17T06:56:19.418Z</time>
      </trkpt>
      <trkpt lat="47.27229" lon="0.34724">
        <ele>35.603259083202</ele>
        <time>2021-08-17T06:56:22.480Z</time>
      </trkpt>
      <trkpt lat="47.27173" lon="0.34776">
        <ele>36.060460813338</ele>
        <time>2021-08-17T06:56:25.564Z</time>
      </trkpt>
      <trkpt lat="47.27157" lon="0.34788">
        <ele>36.41825017906</ele>
        <time>2021-08-17T06:56:28.654Z</time>
      </trkpt>
      <trkpt lat="47.27143" lon="0.34802">
        <ele>36.659780845358</ele>
        <time>2021-08-17T06:56:31.749Z</time>
      </trkpt>
      <trkpt lat="47.2711" lon="0.34843">
        <ele>36.721777530089</ele>
        <time>2021-08-17T06:56:34.859Z</time>
      </trkpt>
      <trkpt lat="47.27015" lon="0.34932">
        <ele>36.709928866652</ele>
        <time>2021-08-17T06:56:38.007Z</time>
      </trkpt>
      <trkpt lat="47.27015" lon="0.34932">
        <ele>36.899791774697</ele>
        <time>2021-08-17T06:56:41.155Z</time>
      </trkpt>
      <trkpt lat="47.26984" lon="0.34957">
        <ele>37.188228613924</ele>
        <time>2021-08-17T06:56:44.314Z</time>
      </trkpt>
      <trkpt lat="47.26936" lon="0.34979">
        <ele>37.530450982736</ele>
        <time>2021-08-17T06:56:47.490Z</time>
      </trkpt>
      <trkpt lat="47.26915" lon="0.34989">
        <ele>37.684399568836</ele>
        <time>2021-08-17T06:56:50.673Z</time>
      </trkpt>
      <trkpt lat="47.26897" lon="0.35">
        <ele>37.866567048598</ele>
        <time>2021-08-17T06:56:53.863Z</time>
      </trkpt>
      <trkpt lat="47.2688" lon="0.35019">
        <ele>38.025741754923</ele>
        <time>2021-08-17T06:56:57.060Z</time>
      </trkpt>
      <trkpt lat="47.26826" lon="0.35108">
        <ele>38.161576920424</ele>
        <time>2021-08-17T06:57:00.284Z</time>
      </trkpt>
      <trkpt lat="47.26826" lon="0.35108">
        <ele>38.314724772922</ele>
        <time>2021-08-17T06:57:03.508Z</time>
      </trkpt>
      <trkpt lat="47.26814" lon="0.35125">
        <ele>38.473597139042</ele>
        <time>2021-08-17T06:57:06.738Z</time>
      </trkpt>
      <trkpt lat="47.26802" lon="0.35137">
        <ele>38.688850266044</ele>
        <time>2021-08-17T06:57:09.972Z</time>
      </trkpt>
      <trkpt lat="47.2679" lon="0.35151">
        <ele>38.859213380855</ele>
        <time>2021-08-17T06:57:13.211Z</time>
      </trkpt>
      <trkpt lat="47.26785" lon="0.35163">
        <ele>39.054182922716</ele>
        <time>2021-08-17T06:57:16.454Z</time>
      </trkpt>
      <trkpt lat="47.26784" lon="0.35169">
        <ele>39.195001338296</ele>
        <time>2021-08-17T06:57:19.698Z</time>
      </trkpt>
      <trkpt lat="47.26785" lon="0.35183">
        <ele>39.322396948796</ele>
        <time>2021-08-17T06:57:22.945Z</time>
      </trkpt>
      <trkpt lat="47.26796" lon="0.35207">
        <ele>39.396664851876</ele>
        <time>2021-08-17T06:57:26.199Z</time>
      </trkpt>
      <trkpt lat="47.26797" lon="0.35216">
        <ele>39.535619353731</ele>
        <time>2021-08-17T06:57:29.455Z</time>
      </trkpt>
      <trkpt lat="47.26796" lon="0.35229">
        <ele>39.662084553156</ele>
        <time>2021-08-17T06:57:32.714Z</time>
      </trkpt>
      <trkpt lat="47.26786" lon="0.35254">
        <ele>39.859000892782</ele>
        <time>2021-08-17T06:57:35.979Z</time>
      </trkpt>
      <trkpt lat="47.2678" lon="0.3525">
        <ele>40.096507351327</ele>
        <time>2021-08-17T06:57:39.247Z</time>
      </trkpt>
      <trkpt lat="47.26773" lon="0.35253">
        <ele>40.353483549775</ele>
        <time>2021-08-17T06:57:42.517Z</time>
      </trkpt>
      <trkpt lat="47.2677" lon="0.3526">
        <ele>40.613137452735</ele>
        <time>2021-08-17T06:57:45.789Z</time>
      </trkpt>
      <trkpt lat="47.26771" lon="0.3527">
        <ele>40.855957746637</ele>
        <time>2021-08-17T06:57:49.063Z</time>
      </trkpt>
      <trkpt lat="47.2671" lon="0.35312">
        <ele>41.510360259915</ele>
        <time>2021-08-17T06:57:52.360Z</time>
      </trkpt>
      <trkpt lat="47.26696" lon="0.35318">
        <ele>41.793825764168</ele>
        <time>2021-08-17T06:57:55.662Z</time>
      </trkpt>
      <trkpt lat="47.26668" lon="0.35325">
        <ele>42.113988608197</ele>
        <time>2021-08-17T06:57:58.973Z</time>
      </trkpt>
      <trkpt lat="47.26678" lon="0.35371">
        <ele>42.177241887087</ele>
        <time>2021-08-17T06:58:02.295Z</time>
      </trkpt>
      <trkpt lat="47.26679" lon="0.35392">
        <ele>42.403605498108</ele>
        <time>2021-08-17T06:58:05.622Z</time>
      </trkpt>
      <trkpt lat="47.26678" lon="0.35429">
        <ele>42.645864752213</ele>
        <time>2021-08-17T06:58:08.957Z</time>
      </trkpt>
      <trkpt lat="47.26663" lon="0.35431">
        <ele>43.007628264869</ele>
        <time>2021-08-17T06:58:12.297Z</time>
      </trkpt>
      <trkpt lat="47.26635" lon="0.35446">
        <ele>43.370171405764</ele>
        <time>2021-08-17T06:58:15.647Z</time>
      </trkpt>
      <trkpt lat="47.26575" lon="0.35494">
        <ele>43.803805094</ele>
        <time>2021-08-17T06:58:19.020Z</time>
      </trkpt>
      <trkpt lat="47.26575" lon="0.35494">
        <ele>44.265292822787</ele>
        <time>2021-08-17T06:58:22.393Z</time>
      </trkpt>
      <trkpt lat="47.26547" lon="0.35497">
        <ele>44.929143905181</ele>
        <time>2021-08-17T06:58:25.775Z</time>
      </trkpt>
      <trkpt lat="47.26534" lon="0.35499">
        <ele>45.532726611982</ele>
        <time>2021-08-17T06:58:29.162Z</time>
      </trkpt>
      <trkpt lat="47.26479" lon="0.3551">
        <ele>46.277887089626</ele>
        <time>2021-08-17T06:58:32.567Z</time>
      </trkpt>
      <trkpt lat="47.26465" lon="0.35515">
        <ele>46.969935646816</ele>
        <time>2021-08-17T06:58:35.977Z</time>
      </trkpt>
      <trkpt lat="47.2646" lon="0.35519">
        <ele>47.653297059558</ele>
        <time>2021-08-17T06:58:39.389Z</time>
      </trkpt>
      <trkpt lat="47.26444" lon="0.35508">
        <ele>48.403876957978</ele>
        <time>2021-08-17T06:58:42.807Z</time>
      </trkpt>
      <trkpt lat="47.26422" lon="0.35502">
        <ele>49.191774679458</ele>
        <time>2021-08-17T06:58:46.232Z</time>
      </trkpt>
      <trkpt lat="47.26402" lon="0.35491">
        <ele>50.039318429192</ele>
        <time>2021-08-17T06:58:49.664Z</time>
      </trkpt>
      <trkpt lat="47.26376" lon="0.35474">
        <ele>50.995217930858</ele>
        <time>2021-08-17T06:58:53.106Z</time>
      </trkpt>
      <trkpt lat="47.26333" lon="0.35433">
        <ele>52.013408602319</ele>
        <time>2021-08-17T06:58:56.565Z</time>
      </trkpt>
      <trkpt lat="47.26286" lon="0.35391">
        <ele>52.873113741699</ele>
        <time>2021-08-17T06:59:00.042Z</time>
      </trkpt>
      <trkpt lat="47.26257" lon="0.35377">
        <ele>53.806275414917</ele>
        <time>2021-08-17T06:59:03.529Z</time>
      </trkpt>
      <trkpt lat="47.26204" lon="0.35342">
        <ele>54.949612728191</ele>
        <time>2021-08-17T06:59:07.036Z</time>
      </trkpt>
      <trkpt lat="47.26198" lon="0.3534">
        <ele>55.627174679887</ele>
        <time>2021-08-17T06:59:10.545Z</time>
      </trkpt>
      <trkpt lat="47.26189" lon="0.35341">
        <ele>56.221267635127</ele>
        <time>2021-08-17T06:59:14.057Z</time>
      </trkpt>
      <trkpt lat="47.26183" lon="0.35345">
        <ele>56.67587088389</ele>
        <time>2021-08-17T06:59:17.571Z</time>
      </trkpt>
      <trkpt lat="47.26126" lon="0.35411">
        <ele>56.894581445653</ele>
        <time>2021-08-17T06:59:21.109Z</time>
      </trkpt>
      <trkpt lat="47.26104" lon="0.35426">
        <ele>57.110548521</ele>
        <time>2021-08-17T06:59:24.655Z</time>
      </trkpt>
      <trkpt lat="47.26087" lon="0.35434">
        <ele>57.220710007348</ele>
        <time>2021-08-17T06:59:28.207Z</time>
      </trkpt>
      <trkpt lat="47.26044" lon="0.3545">
        <ele>57.254193282331</ele>
        <time>2021-08-17T06:59:31.774Z</time>
      </trkpt>
      <trkpt lat="47.26007" lon="0.35466">
        <ele>57.309353421464</ele>
        <time>2021-08-17T06:59:35.354Z</time>
      </trkpt>
      <trkpt lat="47.25972" lon="0.35476">
        <ele>57.371185820206</ele>
        <time>2021-08-17T06:59:38.946Z</time>
      </trkpt>
      <trkpt lat="47.25942" lon="0.35493">
        <ele>57.381196238738</ele>
        <time>2021-08-17T06:59:42.549Z</time>
      </trkpt>
      <trkpt lat="47.25931" lon="0.355">
        <ele>57.437360091975</ele>
        <time>2021-08-17T06:59:46.156Z</time>
      </trkpt>
      <trkpt lat="47.25926" lon="0.35508">
        <ele>57.465313480244</ele>
        <time>2021-08-17T06:59:49.765Z</time>
      </trkpt>
      <trkpt lat="47.2592" lon="0.35525">
        <ele>57.410243027997</ele>
        <time>2021-08-17T06:59:53.379Z</time>
      </trkpt>
      <trkpt lat="47.25916" lon="0.35531">
        <ele>57.553044708192</ele>
        <time>2021-08-17T06:59:56.994Z</time>
      </trkpt>
      <trkpt lat="47.25907" lon="0.35535">
        <ele>57.809287764719</ele>
        <time>2021-08-17T07:00:00.612Z</time>
      </trkpt>
      <trkpt lat="47.25871" lon="0.3555">
        <ele>58.181606999005</ele>
        <time>2021-08-17T07:00:04.243Z</time>
      </trkpt>
      <trkpt lat="47.25848" lon="0.35563">
        <ele>58.562617114473</ele>
        <time>2021-08-17T07:00:07.882Z</time>
      </trkpt>
      <trkpt lat="47.25821" lon="0.3559">
        <ele>58.975616745858</ele>
        <time>2021-08-17T07:00:11.532Z</time>
      </trkpt>
      <trkpt lat="47.25804" lon="0.35563">
        <ele>59.641891221674</ele>
        <time>2021-08-17T07:00:15.190Z</time>
      </trkpt>
      <trkpt lat="47.25798" lon="0.35554">
        <ele>60.302011685952</ele>
        <time>2021-08-17T07:00:18.851Z</time>
      </trkpt>
      <trkpt lat="47.25789" lon="0.3555">
        <ele>61.031503033213</ele>
        <time>2021-08-17T07:00:22.515Z</time>
      </trkpt>
      <trkpt lat="47.25662" lon="0.35568">
        <ele>61.857129343252</ele>
        <time>2021-08-17T07:00:26.222Z</time>
      </trkpt>
      <trkpt lat="47.25505" lon="0.35599">
        <ele>62.718632530593</ele>
        <time>2021-08-17T07:00:29.982Z</time>
      </trkpt>
      <trkpt lat="47.2545" lon="0.35606">
        <ele>63.731758015978</ele>
        <time>2021-08-17T07:00:33.760Z</time>
      </trkpt>
      <trkpt lat="47.2545" lon="0.35606">
        <ele>64.526536861417</ele>
        <time>2021-08-17T07:00:37.538Z</time>
      </trkpt>
      <trkpt lat="47.25409" lon="0.35611">
        <ele>65.528345800188</ele>
        <time>2021-08-17T07:00:41.330Z</time>
      </trkpt>
      <trkpt lat="47.25381" lon="0.3562">
        <ele>66.300759027742</ele>
        <time>2021-08-17T07:00:45.132Z</time>
      </trkpt>
      <trkpt lat="47.25375" lon="0.35632">
        <ele>66.96592843212</ele>
        <time>2021-08-17T07:00:48.937Z</time>
      </trkpt>
      <trkpt lat="47.2538" lon="0.35682">
        <ele>67.63177568659</ele>
        <time>2021-08-17T07:00:52.753Z</time>
      </trkpt>
      <trkpt lat="47.2538" lon="0.35703">
        <ele>68.50795840141</ele>
        <time>2021-08-17T07:00:56.574Z</time>
      </trkpt>
      <trkpt lat="47.25372" lon="0.35713">
        <ele>69.34735174632</ele>
        <time>2021-08-17T07:01:00.399Z</time>
      </trkpt>
      <trkpt lat="47.25367" lon="0.35716">
        <ele>70.118351547711</ele>
        <time>2021-08-17T07:01:04.226Z</time>
      </trkpt>
      <trkpt lat="47.25339" lon="0.35722">
        <ele>70.957750438989</ele>
        <time>2021-08-17T07:01:08.062Z</time>
      </trkpt>
      <trkpt lat="47.25271" lon="0.35729">
        <ele>72.128382057451</ele>
        <time>2021-08-17T07:01:11.921Z</time>
      </trkpt>
      <trkpt lat="47.25258" lon="0.35727">
        <ele>72.946936936684</ele>
        <time>2021-08-17T07:01:15.784Z</time>
      </trkpt>
      <trkpt lat="47.25241" lon="0.35718">
        <ele>73.679189905012</ele>
        <time>2021-08-17T07:01:19.653Z</time>
      </trkpt>
      <trkpt lat="47.25219" lon="0.35712">
        <ele>74.380913660432</ele>
        <time>2021-08-17T07:01:23.530Z</time>
      </trkpt>
      <trkpt lat="47.25196" lon="0.35694">
        <ele>74.637731401669</ele>
        <time>2021-08-17T07:01:27.415Z</time>
      </trkpt>
      <trkpt lat="47.25184" lon="0.35688">
        <ele>75.081437125528</ele>
        <time>2021-08-17T07:01:31.304Z</time>
      </trkpt>
      <trkpt lat="47.25154" lon="0.35696">
        <ele>75.702717908363</ele>
        <time>2021-08-17T07:01:35.203Z</time>
      </trkpt>
      <trkpt lat="47.25103" lon="0.35723">
        <ele>76.59670174388</ele>
        <time>2021-08-17T07:01:39.121Z</time>
      </trkpt>
      <trkpt lat="47.25072" lon="0.35731">
        <ele>77.437409966571</ele>
        <time>2021-08-17T07:01:43.049Z</time>
      </trkpt>
      <trkpt lat="47.25032" lon="0.35738">
        <ele>78.194433129175</ele>
        <time>2021-08-17T07:01:46.990Z</time>
      </trkpt>
      <trkpt lat="47.24968" lon="0.35752">
        <ele>79.066014646157</ele>
        <time>2021-08-17T07:01:50.953Z</time>
      </trkpt>
      <trkpt lat="47.24962" lon="0.3575">
        <ele>80.124023550497</ele>
        <time>2021-08-17T07:01:54.918Z</time>
      </trkpt>
      <trkpt lat="47.24953" lon="0.35716">
        <ele>80.943153872792</ele>
        <time>2021-08-17T07:01:58.891Z</time>
      </trkpt>
      <trkpt lat="47.2496" lon="0.35692">
        <ele>82.341006758551</ele>
        <time>2021-08-17T07:02:02.870Z</time>
      </trkpt>
      <trkpt lat="47.24927" lon="0.35727">
        <ele>84.297062306505</ele>
        <time>2021-08-17T07:02:06.863Z</time>
      </trkpt>
      <trkpt lat="47.24863" lon="0.35865">
        <ele>87.618052588926</ele>
        <time>2021-08-17T07:02:10.894Z</time>
      </trkpt>
      <trkpt lat="47.24861" lon="0.3589">
        <ele>89.603498357465</ele>
        <time>2021-08-17T07:02:14.931Z</time>
      </trkpt>
      <trkpt lat="47.24871" lon="0.36002">
        <ele>91.819818860759</ele>
        <time>2021-08-17T07:02:18.993Z</time>
      </trkpt>
      <trkpt lat="47.24873" lon="0.36053">
        <ele>94.028666196036</ele>
        <time>2021-08-17T07:02:23.067Z</time>
      </trkpt>
      <trkpt lat="47.2481" lon="0.36026">
        <ele>96.512516273583</ele>
        <time>2021-08-17T07:02:27.163Z</time>
      </trkpt>
      <trkpt lat="47.24755" lon="0.36008">
        <ele>98.529326138813</ele>
        <time>2021-08-17T07:02:31.278Z</time>
      </trkpt>
      <trkpt lat="47.24738" lon="0.35982">
        <ele>100.27088556164</ele>
        <time>2021-08-17T07:02:35.401Z</time>
      </trkpt>
      <trkpt lat="47.24666" lon="0.35811">
        <ele>102.12034002773</ele>
        <time>2021-08-17T07:02:39.570Z</time>
      </trkpt>
      <trkpt lat="47.24641" lon="0.35758">
        <ele>103.49025480971</ele>
        <time>2021-08-17T07:02:43.753Z</time>
      </trkpt>
      <trkpt lat="47.24566" lon="0.35721">
        <ele>105.16778846545</ele>
        <time>2021-08-17T07:02:47.963Z</time>
      </trkpt>
      <trkpt lat="47.24564" lon="0.35722">
        <ele>106.34836968901</ele>
        <time>2021-08-17T07:02:52.173Z</time>
      </trkpt>
      <trkpt lat="47.24543" lon="0.35737">
        <ele>107.41804050068</ele>
        <time>2021-08-17T07:02:56.391Z</time>
      </trkpt>
      <trkpt lat="47.24168" lon="0.35572">
        <ele>107.73796877782</ele>
        <time>2021-08-17T07:03:00.740Z</time>
      </trkpt>
      <trkpt lat="47.23927" lon="0.35474">
        <ele>108.925482279</ele>
        <time>2021-08-17T07:03:05.172Z</time>
      </trkpt>
      <trkpt lat="47.23927" lon="0.35474">
        <ele>109.62355803432</ele>
        <time>2021-08-17T07:03:09.604Z</time>
      </trkpt>
      <trkpt lat="47.23619" lon="0.35344">
        <ele>110.37132418652</ele>
        <time>2021-08-17T07:03:14.143Z</time>
      </trkpt>
      <trkpt lat="47.23619" lon="0.35344">
        <ele>110.91970109845</ele>
        <time>2021-08-17T07:03:18.682Z</time>
      </trkpt>
      <trkpt lat="47.23377" lon="0.35242">
        <ele>111.94839553448</ele>
        <time>2021-08-17T07:03:23.305Z</time>
      </trkpt>
      <trkpt lat="47.23393" lon="0.35005">
        <ele>112.54388458793</ele>
        <time>2021-08-17T07:03:27.982Z</time>
      </trkpt>
      <trkpt lat="47.23393" lon="0.35005">
        <ele>112.9113522648</ele>
        <time>2021-08-17T07:03:32.659Z</time>
      </trkpt>
      <trkpt lat="47.23441" lon="0.34332">
        <ele>112.34546895583</ele>
        <time>2021-08-17T07:03:37.490Z</time>
      </trkpt>
      <trkpt lat="47.23434" lon="0.34308">
        <ele>112.72075669196</ele>
        <time>2021-08-17T07:03:42.327Z</time>
      </trkpt>
      <trkpt lat="47.2343" lon="0.343">
        <ele>113.19663833377</ele>
        <time>2021-08-17T07:03:47.166Z</time>
      </trkpt>
      <trkpt lat="47.23426" lon="0.34298">
        <ele>113.76454410695</ele>
        <time>2021-08-17T07:03:52.007Z</time>
      </trkpt>
      <trkpt lat="47.23414" lon="0.34297">
        <ele>114.43209981171</ele>
        <time>2021-08-17T07:03:56.852Z</time>
      </trkpt>
      <trkpt lat="47.23412" lon="0.34294">
        <ele>115.12435711317</ele>
        <time>2021-08-17T07:04:01.698Z</time>
      </trkpt>
      <trkpt lat="47.23117" lon="0.33888">
        <ele>117.00626704554</ele>
        <time>2021-08-17T07:04:06.679Z</time>
      </trkpt>
      <trkpt lat="47.23031" lon="0.3377">
        <ele>117.51217749297</ele>
        <time>2021-08-17T07:04:11.699Z</time>
      </trkpt>
      <trkpt lat="47.22839" lon="0.33518">
        <ele>117.92168451073</ele>
        <time>2021-08-17T07:04:16.805Z</time>
      </trkpt>
      <trkpt lat="47.22843" lon="0.33504">
        <ele>118.40007330722</ele>
        <time>2021-08-17T07:04:21.914Z</time>
      </trkpt>
      <trkpt lat="47.2283" lon="0.33487">
        <ele>118.84340222635</ele>
        <time>2021-08-17T07:04:27.029Z</time>
      </trkpt>
      <trkpt lat="47.22767" lon="0.33399">
        <ele>119.4019072005</ele>
        <time>2021-08-17T07:04:32.173Z</time>
      </trkpt>
      <trkpt lat="47.22671" lon="0.3327">
        <ele>119.14917978786</ele>
        <time>2021-08-17T07:04:37.361Z</time>
      </trkpt>
      <trkpt lat="47.22585" lon="0.33154">
        <ele>118.59282387686</ele>
        <time>2021-08-17T07:04:42.587Z</time>
      </trkpt>
      <trkpt lat="47.2252" lon="0.33071">
        <ele>118.03357790867</ele>
        <time>2021-08-17T07:04:47.842Z</time>
      </trkpt>
      <trkpt lat="47.2252" lon="0.33071">
        <ele>117.3220510261</ele>
        <time>2021-08-17T07:04:53.097Z</time>
      </trkpt>
      <trkpt lat="47.22357" lon="0.3286">
        <ele>116.32069914859</ele>
        <time>2021-08-17T07:04:58.425Z</time>
      </trkpt>
      <trkpt lat="47.22357" lon="0.3286">
        <ele>115.16034975165</ele>
        <time>2021-08-17T07:05:03.753Z</time>
      </trkpt>
      <trkpt lat="47.22319" lon="0.32809">
        <ele>113.42570849679</ele>
        <time>2021-08-17T07:05:09.098Z</time>
      </trkpt>
      <trkpt lat="47.22314" lon="0.32807">
        <ele>111.83365689144</ele>
        <time>2021-08-17T07:05:14.444Z</time>
      </trkpt>
      <trkpt lat="47.22298" lon="0.32807">
        <ele>109.92297965115</ele>
        <time>2021-08-17T07:05:19.796Z</time>
      </trkpt>
      <trkpt lat="47.22264" lon="0.32744">
        <ele>107.81887127587</ele>
        <time>2021-08-17T07:05:25.166Z</time>
      </trkpt>
      <trkpt lat="47.22256" lon="0.32733">
        <ele>105.93622392936</ele>
        <time>2021-08-17T07:05:30.540Z</time>
      </trkpt>
      <trkpt lat="47.22228" lon="0.32728">
        <ele>103.73519144</ele>
        <time>2021-08-17T07:05:35.923Z</time>
      </trkpt>
      <trkpt lat="47.22214" lon="0.32723">
        <ele>101.62400140922</ele>
        <time>2021-08-17T07:05:41.311Z</time>
      </trkpt>
      <trkpt lat="47.22203" lon="0.32707">
        <ele>99.481565906776</ele>
        <time>2021-08-17T07:05:46.704Z</time>
      </trkpt>
      <trkpt lat="47.22196" lon="0.32693">
        <ele>97.423303477174</ele>
        <time>2021-08-17T07:05:52.101Z</time>
      </trkpt>
      <trkpt lat="47.22189" lon="0.32651">
        <ele>95.376233188278</ele>
        <time>2021-08-17T07:05:57.508Z</time>
      </trkpt>
      <trkpt lat="47.22181" lon="0.32636">
        <ele>93.401563692353</ele>
        <time>2021-08-17T07:06:02.919Z</time>
      </trkpt>
      <trkpt lat="47.22174" lon="0.32628">
        <ele>91.501731244883</ele>
        <time>2021-08-17T07:06:08.333Z</time>
      </trkpt>
      <trkpt lat="47.22146" lon="0.32622">
        <ele>89.377671837823</ele>
        <time>2021-08-17T07:06:13.757Z</time>
      </trkpt>
      <trkpt lat="47.22079" lon="0.32601">
        <ele>87.557080137191</ele>
        <time>2021-08-17T07:06:19.203Z</time>
      </trkpt>
      <trkpt lat="47.22075" lon="0.326">
        <ele>86.372050419208</ele>
        <time>2021-08-17T07:06:24.651Z</time>
      </trkpt>
      <trkpt lat="47.22059" lon="0.32599">
        <ele>85.512424822081</ele>
        <time>2021-08-17T07:06:30.104Z</time>
      </trkpt>
      <trkpt lat="47.22053" lon="0.32594">
        <ele>84.584174127557</ele>
        <time>2021-08-17T07:06:35.560Z</time>
      </trkpt>
      <trkpt lat="47.21969" lon="0.32506">
        <ele>83.662664127383</ele>
        <time>2021-08-17T07:06:41.050Z</time>
      </trkpt>
      <trkpt lat="47.21954" lon="0.32485">
        <ele>82.796126222112</ele>
        <time>2021-08-17T07:06:46.547Z</time>
      </trkpt>
      <trkpt lat="47.21945" lon="0.32469">
        <ele>81.950265557448</ele>
        <time>2021-08-17T07:06:52.049Z</time>
      </trkpt>
      <trkpt lat="47.2193" lon="0.32417">
        <ele>80.952240262405</ele>
        <time>2021-08-17T07:06:57.563Z</time>
      </trkpt>
      <trkpt lat="47.21915" lon="0.32405">
        <ele>80.446515727615</ele>
        <time>2021-08-17T07:07:03.083Z</time>
      </trkpt>
      <trkpt lat="47.21912" lon="0.32393">
        <ele>79.849405365998</ele>
        <time>2021-08-17T07:07:08.606Z</time>
      </trkpt>
      <trkpt lat="47.21915" lon="0.32393">
        <ele>79.226556444394</ele>
        <time>2021-08-17T07:07:14.130Z</time>
      </trkpt>
      <trkpt lat="47.21924" lon="0.32399">
        <ele>78.561688767743</ele>
        <time>2021-08-17T07:07:19.657Z</time>
      </trkpt>
      <trkpt lat="47.21929" lon="0.32401">
        <ele>77.898888128967</ele>
        <time>2021-08-17T07:07:25.186Z</time>
      </trkpt>
      <trkpt lat="47.21941" lon="0.32376">
        <ele>77.068566250017</ele>
        <time>2021-08-17T07:07:30.722Z</time>
      </trkpt>
      <trkpt lat="47.21949" lon="0.32365">
        <ele>76.544167948361</ele>
        <time>2021-08-17T07:07:36.262Z</time>
      </trkpt>
      <trkpt lat="47.21956" lon="0.32358">
        <ele>76.055562225557</ele>
        <time>2021-08-17T07:07:41.805Z</time>
      </trkpt>
      <trkpt lat="47.21963" lon="0.32356">
        <ele>75.619206039065</ele>
        <time>2021-08-17T07:07:47.350Z</time>
      </trkpt>
      <trkpt lat="47.21978" lon="0.32354">
        <ele>75.231528888648</ele>
        <time>2021-08-17T07:07:52.900Z</time>
      </trkpt>
      <trkpt lat="47.21983" lon="0.32357">
        <ele>74.943362915909</ele>
        <time>2021-08-17T07:07:58.452Z</time>
      </trkpt>
      <trkpt lat="47.2199" lon="0.32364">
        <ele>74.734382267966</ele>
        <time>2021-08-17T07:08:04.007Z</time>
      </trkpt>
      <trkpt lat="47.21998" lon="0.32375">
        <ele>74.648047870522</ele>
        <time>2021-08-17T07:08:09.565Z</time>
      </trkpt>
      <trkpt lat="47.22" lon="0.32376">
        <ele>74.684238840292</ele>
        <time>2021-08-17T07:08:15.124Z</time>
      </trkpt>
      <trkpt lat="47.22008" lon="0.32374">
        <ele>74.876070475058</ele>
        <time>2021-08-17T07:08:20.686Z</time>
      </trkpt>
      <trkpt lat="47.22" lon="0.32332">
        <ele>75.450688714297</ele>
        <time>2021-08-17T07:08:26.258Z</time>
      </trkpt>
    </trkseg>
  </trk>
</gpx>